Time;durP1;ratioP1;P1;durP2;ratioP2;P2;SDS_P1;SDS_P2;PMS_P1;PMS_P2;Temp;Humidity;BMP_temperature;BMP_pressure;BME280_temperature;BME280_humidity;BME280_pressure;Samples;Min_cycle;Max_cycle;Signal;HPM_P1;HPM_P2
2022/03/06 00:00:08;;;;;;;9.93;7.72;;;16.80;36.30;;;;;;5058802;28;20388;-37
2022/03/06 00:02:35;;;;;;;12.43;8.50;;;16.80;36.30;;;;;;5057878;28;20032;-37
2022/03/06 00:05:01;;;;;;;10.75;8.13;;;16.80;36.40;;;;;;5059190;28;20009;-36
2022/03/06 00:07:28;;;;;;;11.77;8.40;;;16.80;36.40;;;;;;5060056;28;20032;-37
2022/03/06 00:09:55;;;;;;;11.10;8.18;;;16.80;36.40;;;;;;5059793;28;20029;-37
2022/03/06 00:12:21;;;;;;;10.60;8.50;;;16.80;36.40;;;;;;5059219;28;20039;-37
2022/03/06 00:14:47;;;;;;;10.43;8.10;;;16.80;36.50;;;;;;5058649;28;20017;-36
2022/03/06 00:17:16;;;;;;;9.43;7.78;;;16.80;36.50;;;;;;5059496;28;20028;-36
2022/03/06 00:19:43;;;;;;;10.43;8.15;;;16.70;36.50;;;;;;5060111;28;20097;-36
2022/03/06 00:22:10;;;;;;;11.43;8.50;;;16.80;36.50;;;;;;5060063;28;20150;-36
2022/03/06 00:24:37;;;;;;;10.18;8.00;;;16.80;36.50;;;;;;5059803;28;20501;-36
2022/03/06 00:27:03;;;;;;;10.75;8.02;;;16.80;36.50;;;;;;5061141;28;20013;-37
2022/03/06 00:29:29;;;;;;;9.68;7.80;;;16.80;36.50;;;;;;5059791;28;20102;-35
2022/03/06 00:31:55;;;;;;;9.95;8.05;;;16.70;36.50;;;;;;5059223;28;20025;-36
2022/03/06 00:34:20;;;;;;;10.18;8.10;;;16.80;36.60;;;;;;5059956;28;20053;-36
2022/03/06 00:36:46;;;;;;;10.43;8.15;;;16.80;36.70;;;;;;5058508;28;20017;-36
2022/03/06 00:39:13;;;;;;;11.10;8.52;;;16.70;36.60;;;;;;5060399;28;20013;-37
2022/03/06 00:41:39;;;;;;;11.63;8.70;;;16.70;36.60;;;;;;5058819;28;20028;-35
2022/03/06 00:44:05;;;;;;;11.57;8.65;;;16.70;36.60;;;;;;5053949;28;20137;-36
2022/03/06 00:46:31;;;;;;;11.10;8.65;;;16.70;36.60;;;;;;5055316;28;20020;-37
2022/03/06 00:48:57;;;;;;;10.25;8.23;;;16.70;36.70;;;;;;5054898;28;20017;-35
2022/03/06 00:51:22;;;;;;;12.55;8.80;;;16.70;36.70;;;;;;5055698;28;20029;-39
2022/03/06 00:53:49;;;;;;;10.65;8.43;;;16.70;36.70;;;;;;5055869;28;20015;-36
2022/03/06 00:56:15;;;;;;;11.95;8.88;;;16.70;36.70;;;;;;5055402;28;20021;-36
2022/03/06 00:58:42;;;;;;;10.48;8.55;;;16.70;36.80;;;;;;5054494;28;20022;-36
2022/03/06 01:01:08;;;;;;;9.75;7.80;;;16.70;36.80;;;;;;5055007;28;20047;-35
2022/03/06 01:03:34;;;;;;;10.98;8.20;;;16.70;36.80;;;;;;5055057;28;20356;-35
2022/03/06 01:06:00;;;;;;;11.65;8.60;;;16.70;36.80;;;;;;5054887;28;20025;-35
2022/03/06 01:08:27;;;;;;;10.20;7.97;;;16.70;36.80;;;;;;5054801;28;20471;-37
2022/03/06 01:10:53;;;;;;;10.45;8.13;;;16.70;36.80;;;;;;5053393;28;20565;-35
2022/03/06 01:13:20;;;;;;;10.75;8.38;;;16.60;36.80;;;;;;5055794;28;20387;-38
2022/03/06 01:15:47;;;;;;;10.32;8.00;;;16.60;36.80;;;;;;5057689;28;20376;-38
2022/03/06 01:18:13;;;;;;;10.75;8.52;;;16.60;36.80;;;;;;5058448;28;20021;-39
2022/03/06 01:20:39;;;;;;;10.05;8.30;;;16.60;36.80;;;;;;5057554;28;20107;-38
2022/03/06 01:23:06;;;;;;;11.70;8.45;;;16.60;36.90;;;;;;5057205;28;20025;-36
2022/03/06 01:25:34;;;;;;;11.38;8.20;;;16.60;36.90;;;;;;5057711;28;20027;-38
2022/03/06 01:28:00;;;;;;;10.93;8.60;;;16.60;36.90;;;;;;5057438;28;20013;-37
2022/03/06 01:30:27;;;;;;;11.05;8.57;;;16.60;36.90;;;;;;5057411;28;20059;-38
2022/03/06 01:32:53;;;;;;;11.93;8.90;;;16.60;37.00;;;;;;5057136;28;20017;-35
2022/03/06 01:35:19;;;;;;;10.55;8.10;;;16.60;36.90;;;;;;5058332;28;20070;-37
2022/03/06 01:37:46;;;;;;;11.98;8.38;;;16.60;36.90;;;;;;5058190;28;20013;-36
2022/03/06 01:40:12;;;;;;;10.85;8.30;;;16.60;36.90;;;;;;5057440;28;20040;-35
2022/03/06 01:42:42;;;;;;;11.15;8.43;;;16.60;37.00;;;;;;5056055;28;20057;-36
2022/03/06 01:45:08;;;;;;;11.52;8.82;;;16.60;37.00;;;;;;5055015;28;20021;-37
2022/03/06 01:47:41;;;;;;;10.63;8.25;;;16.60;37.00;;;;;;5054509;28;20471;-36
2022/03/06 01:50:28;;;;;;;11.70;8.52;;;16.60;37.00;;;;;;5056220;28;20021;-35
2022/03/06 01:52:54;;;;;;;11.52;8.40;;;16.60;37.00;;;;;;5056042;28;20017;-36
2022/03/06 01:55:23;;;;;;;11.68;8.35;;;16.60;37.10;;;;;;5055985;28;20411;-35
2022/03/06 01:57:49;;;;;;;10.95;8.40;;;16.50;37.00;;;;;;5054598;28;20464;-34
2022/03/06 02:00:17;;;;;;;10.93;8.52;;;16.50;37.10;;;;;;5053628;28;20145;-34
2022/03/06 02:02:42;;;;;;;11.20;8.20;;;16.50;37.00;;;;;;5053313;28;20513;-35
2022/03/06 02:05:08;;;;;;;10.73;8.55;;;16.50;37.00;;;;;;5052905;28;20017;-34
2022/03/06 02:07:34;;;;;;;10.63;8.50;;;16.50;37.00;;;;;;5057299;28;20043;-35
2022/03/06 02:10:00;;;;;;;11.70;8.65;;;16.50;37.10;;;;;;5056064;28;20364;-34
2022/03/06 02:12:26;;;;;;;10.15;8.10;;;16.50;37.10;;;;;;5057083;28;20017;-35
2022/03/06 02:14:53;;;;;;;10.95;8.30;;;16.50;37.10;;;;;;5055956;28;20486;-34
2022/03/06 02:17:19;;;;;;;10.82;8.25;;;16.50;37.10;;;;;;5057733;28;20460;-34
2022/03/06 02:19:52;;;;;;;12.13;8.82;;;16.50;37.10;;;;;;5058070;28;20037;-35
2022/03/06 02:22:34;;;;;;;11.95;8.85;;;16.50;37.10;;;;;;5059015;28;20028;-34
2022/03/06 02:25:03;;;;;;;10.25;8.13;;;16.50;37.00;;;;;;5058704;28;20551;-35
2022/03/06 02:27:28;;;;;;;11.50;8.93;;;16.50;37.00;;;;;;5055962;28;20450;-36
2022/03/06 02:29:54;;;;;;;10.95;8.55;;;16.50;37.00;;;;;;5056941;28;20029;-35
2022/03/06 02:32:21;;;;;;;10.88;8.20;;;16.50;37.10;;;;;;5057142;28;20025;-35
2022/03/06 02:34:50;;;;;;;11.60;8.48;;;16.40;37.00;;;;;;5056973;28;20043;-34
2022/03/06 02:37:19;;;;;;;11.73;8.50;;;16.50;37.10;;;;;;5056862;28;20020;-35
2022/03/06 02:39:45;;;;;;;11.27;8.05;;;16.50;37.10;;;;;;5055471;28;20017;-34
2022/03/06 02:42:34;;;;;;;11.65;8.15;;;16.40;37.00;;;;;;5056379;28;20072;-35
2022/03/06 02:45:01;;;;;;;12.00;8.63;;;16.50;37.10;;;;;;5056160;28;20115;-34
2022/03/06 02:47:27;;;;;;;11.00;8.55;;;16.50;37.10;;;;;;5055565;28;20143;-34
2022/03/06 02:49:53;;;;;;;11.50;8.35;;;16.40;37.10;;;;;;5055670;28;20506;-34
2022/03/06 02:52:19;;;;;;;10.48;7.68;;;16.40;37.00;;;;;;5055612;28;20014;-34
2022/03/06 02:54:45;;;;;;;10.82;8.48;;;16.40;37.10;;;;;;5055960;28;20526;-34
2022/03/06 02:57:11;;;;;;;10.48;8.07;;;16.40;37.00;;;;;;5055809;28;20092;-34
2022/03/06 02:59:37;;;;;;;10.95;8.65;;;16.40;37.10;;;;;;5055932;28;20098;-36
2022/03/06 03:02:04;;;;;;;12.52;9.02;;;16.40;37.00;;;;;;5055491;28;20025;-36
2022/03/06 03:04:31;;;;;;;11.55;8.88;;;16.40;37.00;;;;;;5055978;28;20013;-36
2022/03/06 03:06:57;;;;;;;10.45;8.02;;;16.40;37.10;;;;;;5055660;28;20467;-38
2022/03/06 03:09:25;;;;;;;12.20;8.18;;;16.40;37.00;;;;;;5055466;28;20813;-36
2022/03/06 03:11:56;;;;;;;10.13;8.38;;;16.40;37.00;;;;;;5055857;28;20088;-36
2022/03/06 03:14:23;;;;;;;11.48;8.27;;;16.30;37.00;;;;;;5055564;28;20028;-36
2022/03/06 03:16:49;;;;;;;10.95;8.30;;;16.30;37.00;;;;;;5055436;28;20048;-38
2022/03/06 03:19:15;;;;;;;12.00;8.85;;;16.40;37.10;;;;;;5055042;28;20021;-36
2022/03/06 03:21:41;;;;;;;11.07;8.32;;;16.40;37.00;;;;;;5056114;28;20092;-36
2022/03/06 03:24:07;;;;;;;11.32;8.18;;;16.40;37.00;;;;;;5055048;28;20032;-36
2022/03/06 03:26:34;;;;;;;10.02;8.23;;;16.30;37.00;;;;;;5054878;28;20069;-37
2022/03/06 03:29:00;;;;;;;11.55;8.65;;;16.30;37.00;;;;;;5056052;28;20005;-36
2022/03/06 03:31:26;;;;;;;11.65;8.77;;;16.30;37.00;;;;;;5055256;28;20417;-36
2022/03/06 03:33:53;;;;;;;12.35;8.73;;;16.30;37.00;;;;;;5055463;28;20476;-36
2022/03/06 03:36:19;;;;;;;12.18;8.70;;;16.30;37.00;;;;;;5055993;28;20407;-36
2022/03/06 03:38:46;;;;;;;10.43;8.50;;;16.30;37.00;;;;;;5055065;28;20014;-35
2022/03/06 03:41:13;;;;;;;10.73;8.65;;;16.30;37.00;;;;;;5055429;28;20092;-36
2022/03/06 03:43:39;;;;;;;10.45;8.48;;;16.30;37.00;;;;;;5060164;28;20411;-36
2022/03/06 03:46:06;;;;;;;11.52;8.57;;;16.30;36.90;;;;;;5060781;28;20472;-37
2022/03/06 03:48:31;;;;;;;12.15;8.27;;;16.30;36.90;;;;;;5059327;28;20044;-36
2022/03/06 03:50:58;;;;;;;10.95;8.00;;;16.30;36.90;;;;;;5059557;28;20017;-36
2022/03/06 03:53:23;;;;;;;10.52;8.10;;;16.30;36.90;;;;;;5059751;28;20160;-37
2022/03/06 03:55:50;;;;;;;10.85;8.65;;;16.20;36.90;;;;;;5059195;28;20412;-36
2022/03/06 03:58:16;;;;;;;10.10;8.00;;;16.30;36.90;;;;;;5060218;28;20017;-38
2022/03/06 04:00:43;;;;;;;11.23;8.73;;;16.30;36.90;;;;;;5060859;28;20475;-40
2022/03/06 04:03:09;;;;;;;11.30;8.38;;;16.20;36.90;;;;;;5060379;28;20058;-36
2022/03/06 04:05:36;;;;;;;11.00;8.43;;;16.30;37.00;;;;;;5060480;28;20108;-38
2022/03/06 04:08:02;;;;;;;12.10;8.88;;;16.30;36.90;;;;;;5060701;28;20502;-39
2022/03/06 04:10:28;;;;;;;10.38;8.02;;;16.20;36.80;;;;;;5060557;28;20029;-39
2022/03/06 04:12:54;;;;;;;9.80;7.68;;;16.20;36.80;;;;;;5061314;28;20519;-37
2022/03/06 04:15:21;;;;;;;11.60;8.77;;;16.20;36.90;;;;;;5059648;28;20052;-39
2022/03/06 04:17:48;;;;;;;11.07;8.57;;;16.20;36.80;;;;;;5062166;28;20038;-38
2022/03/06 04:20:14;;;;;;;10.48;8.77;;;16.20;36.80;;;;;;5060307;28;20102;-37
2022/03/06 04:22:41;;;;;;;11.30;8.60;;;16.20;36.90;;;;;;5061304;28;20151;-36
2022/03/06 04:25:09;;;;;;;10.15;8.05;;;16.20;36.80;;;;;;5060431;28;20017;-38
2022/03/06 04:27:35;;;;;;;11.50;8.43;;;16.20;36.80;;;;;;5057735;28;20021;-36
2022/03/06 04:30:01;;;;;;;11.13;8.30;;;16.20;36.80;;;;;;5055607;28;20053;-43
2022/03/06 04:32:28;;;;;;;11.55;8.75;;;16.20;36.80;;;;;;5055816;28;20112;-36
2022/03/06 04:34:53;;;;;;;11.05;8.50;;;16.20;36.80;;;;;;5055768;28;20435;-38
2022/03/06 04:37:20;;;;;;;10.70;8.35;;;16.20;36.80;;;;;;5055594;28;20048;-38
2022/03/06 04:39:46;;;;;;;11.02;8.10;;;16.20;36.70;;;;;;5055664;28;20062;-37
2022/03/06 04:42:12;;;;;;;12.13;8.75;;;16.20;36.70;;;;;;5055339;28;20029;-37
2022/03/06 04:44:39;;;;;;;11.80;8.65;;;16.20;36.70;;;;;;5052984;28;20107;-37
2022/03/06 04:47:05;;;;;;;10.85;8.30;;;16.20;36.80;;;;;;5054479;28;20483;-37
2022/03/06 04:49:31;;;;;;;10.18;7.85;;;16.20;36.80;;;;;;5053007;28;20495;-40
2022/03/06 04:51:57;;;;;;;10.98;8.35;;;16.10;36.70;;;;;;5053213;28;20025;-38
2022/03/06 04:54:24;;;;;;;9.88;7.90;;;16.20;36.70;;;;;;5054349;28;20028;-37
2022/03/06 04:56:50;;;;;;;11.02;8.73;;;16.10;36.70;;;;;;5054441;28;20487;-41
2022/03/06 04:59:16;;;;;;;10.40;8.10;;;16.10;36.70;;;;;;5053773;28;20506;-37
2022/03/06 05:01:42;;;;;;;10.98;8.10;;;16.10;36.70;;;;;;5053596;28;20021;-39
2022/03/06 05:04:08;;;;;;;10.10;8.43;;;16.10;36.70;;;;;;5053925;28;20017;-38
2022/03/06 05:06:35;;;;;;;10.85;8.02;;;16.10;36.70;;;;;;5053914;28;20032;-37
2022/03/06 05:09:01;;;;;;;10.57;7.97;;;16.10;36.70;;;;;;5053962;28;20029;-36
2022/03/06 05:11:28;;;;;;;9.55;7.85;;;16.10;36.70;;;;;;5053298;28;20044;-38
2022/03/06 05:13:54;;;;;;;11.68;8.55;;;16.10;36.70;;;;;;5052546;28;20057;-36
2022/03/06 05:16:20;;;;;;;10.13;8.02;;;16.10;36.60;;;;;;5053517;28;20494;-37
2022/03/06 05:18:47;;;;;;;11.18;8.40;;;16.10;36.60;;;;;;5053764;28;20029;-36
2022/03/06 05:21:13;;;;;;;10.18;8.18;;;16.10;36.50;;;;;;5053619;28;20013;-39
2022/03/06 05:23:40;;;;;;;11.93;8.38;;;16.00;36.50;;;;;;5053425;28;20025;-36
2022/03/06 05:26:06;;;;;;;10.23;7.95;;;16.10;36.60;;;;;;5053404;28;20502;-38
2022/03/06 05:28:32;;;;;;;9.32;7.40;;;16.10;36.60;;;;;;5053187;28;20475;-37
2022/03/06 05:30:58;;;;;;;9.82;7.93;;;16.10;36.50;;;;;;5053561;28;20025;-38
2022/03/06 05:33:25;;;;;;;11.85;8.23;;;16.10;36.50;;;;;;5053670;28;20033;-37
2022/03/06 05:35:51;;;;;;;9.82;7.88;;;16.10;36.60;;;;;;5053357;28;20021;-38
2022/03/06 05:38:18;;;;;;;10.88;8.10;;;16.10;36.50;;;;;;5053170;28;20163;-36
2022/03/06 05:40:43;;;;;;;11.07;8.52;;;16.00;36.40;;;;;;5053566;28;20148;-36
2022/03/06 05:43:09;;;;;;;10.20;8.10;;;16.00;36.40;;;;;;5055599;28;20056;-37
2022/03/06 05:45:36;;;;;;;10.02;8.00;;;16.00;36.40;;;;;;5057042;28;20464;-37
2022/03/06 05:48:02;;;;;;;11.05;8.00;;;16.00;36.40;;;;;;5057059;28;20021;-38
2022/03/06 05:50:29;;;;;;;10.98;8.43;;;16.00;36.40;;;;;;5056467;28;20100;-36
2022/03/06 05:52:54;;;;;;;10.30;7.93;;;16.00;36.40;;;;;;5056964;28;20102;-38
2022/03/06 05:55:22;;;;;;;10.25;7.95;;;16.00;36.40;;;;;;5056787;28;20088;-38
2022/03/06 05:57:49;;;;;;;10.65;8.25;;;16.00;36.30;;;;;;5056734;28;20098;-37
2022/03/06 06:00:18;;;;;;;10.70;8.43;;;16.00;36.30;;;;;;5056614;28;20073;-38
2022/03/06 06:02:43;;;;;;;12.10;8.68;;;16.00;36.30;;;;;;5056420;28;20716;-37
2022/03/06 06:05:10;;;;;;;10.40;8.05;;;16.00;36.30;;;;;;5054982;28;20013;-36
2022/03/06 06:07:36;;;;;;;9.80;7.70;;;16.00;36.40;;;;;;5055295;28;20025;-39
2022/03/06 06:10:04;;;;;;;11.02;8.13;;;16.00;36.40;;;;;;5056070;28;20033;-39
2022/03/06 06:12:30;;;;;;;10.82;8.25;;;16.00;36.30;;;;;;5055828;28;20486;-37
2022/03/06 06:14:56;;;;;;;10.52;8.00;;;16.00;36.30;;;;;;5056172;28;20022;-39
2022/03/06 06:17:22;;;;;;;11.27;8.20;;;16.00;36.30;;;;;;5055869;28;20479;-38
2022/03/06 06:19:48;;;;;;;11.50;8.50;;;15.90;36.30;;;;;;5055805;28;20483;-41
2022/03/06 06:22:13;;;;;;;9.93;8.00;;;15.90;36.30;;;;;;5055704;28;20107;-39
2022/03/06 06:24:40;;;;;;;10.93;8.10;;;15.90;36.30;;;;;;5055543;28;20487;-37
2022/03/06 06:27:05;;;;;;;10.45;8.07;;;15.90;36.20;;;;;;5055667;28;20024;-39
2022/03/06 06:29:31;;;;;;;10.98;8.15;;;15.90;36.20;;;;;;5055484;28;20582;-39
2022/03/06 06:31:59;;;;;;;10.93;7.75;;;15.90;36.10;;;;;;5054663;28;20108;-39
2022/03/06 06:34:24;;;;;;;10.80;8.05;;;15.90;36.10;;;;;;5055760;28;20020;-38
2022/03/06 06:36:50;;;;;;;10.13;8.13;;;15.90;36.20;;;;;;5054302;28;20479;-37
2022/03/06 06:39:16;;;;;;;9.38;7.90;;;15.90;36.10;;;;;;5055643;28;20025;-38
2022/03/06 06:41:42;;;;;;;10.13;8.00;;;15.90;36.10;;;;;;5055692;28;20420;-37
2022/03/06 06:44:08;;;;;;;10.38;7.93;;;15.90;36.10;;;;;;5055601;28;20140;-37
2022/03/06 06:46:35;;;;;;;9.50;7.40;;;16.00;36.10;;;;;;5055788;28;20059;-38
2022/03/06 06:49:00;;;;;;;9.95;7.85;;;16.00;36.10;;;;;;5054431;28;20048;-37
2022/03/06 06:51:29;;;;;;;9.70;7.70;;;16.00;36.00;;;;;;5055827;28;20049;-36
2022/03/06 06:53:55;;;;;;;9.77;7.78;;;16.10;35.70;;;;;;5054624;28;20043;-36
2022/03/06 06:56:21;;;;;;;9.48;7.50;;;16.30;35.40;;;;;;5055326;28;20032;-37
2022/03/06 06:58:48;;;;;;;9.05;7.35;;;16.50;35.10;;;;;;5055582;28;20471;-38
2022/03/06 07:01:16;;;;;;;10.30;7.72;;;16.50;34.80;;;;;;5055668;28;20009;-36
2022/03/06 07:03:42;;;;;;;9.73;7.55;;;16.70;34.50;;;;;;5054102;28;20029;-36
2022/03/06 07:06:09;;;;;;;8.75;7.22;;;16.70;34.40;;;;;;5055616;28;20021;-38
2022/03/06 07:08:36;;;;;;;9.32;7.47;;;16.70;34.40;;;;;;5055291;28;20506;-37
2022/03/06 07:11:01;;;;;;;9.55;7.78;;;16.60;34.60;;;;;;5053932;28;20017;-36
2022/03/06 07:13:27;;;;;;;8.57;7.10;;;16.60;34.60;;;;;;5059940;28;20024;-38
2022/03/06 07:15:54;;;;;;;8.75;7.20;;;16.60;34.70;;;;;;5059768;28;20013;-38
2022/03/06 07:18:21;;;;;;;9.55;7.38;;;16.60;34.60;;;;;;5058994;28;20039;-38
2022/03/06 07:20:48;;;;;;;9.00;7.78;;;16.60;34.60;;;;;;5058701;28;20069;-38
2022/03/06 07:23:16;;;;;;;8.18;7.03;;;16.60;34.50;;;;;;5058911;28;20017;-38
2022/03/06 07:25:41;;;;;;;9.20;7.40;;;16.70;34.40;;;;;;5058190;28;20470;-37
2022/03/06 07:28:08;;;;;;;10.88;7.60;;;16.70;34.30;;;;;;5057590;28;20075;-36
2022/03/06 07:30:33;;;;;;;9.32;7.20;;;16.70;34.20;;;;;;5058135;28;20475;-37
2022/03/06 07:33:02;;;;;;;9.68;7.63;;;16.80;34.10;;;;;;5057555;28;20041;-37
2022/03/06 07:35:29;;;;;;;9.52;7.40;;;16.90;33.90;;;;;;5057512;28;20063;-37
2022/03/06 07:37:55;;;;;;;9.38;6.85;;;16.90;33.60;;;;;;5056200;28;20005;-37
2022/03/06 07:40:21;;;;;;;8.85;7.00;;;17.00;33.60;;;;;;5057921;28;20071;-37
2022/03/06 07:42:47;;;;;;;8.88;7.15;;;17.10;33.40;;;;;;5056969;28;20097;-36
2022/03/06 07:45:13;;;;;;;8.93;7.03;;;17.20;33.20;;;;;;5055784;28;20029;-36
2022/03/06 07:47:39;;;;;;;9.48;7.35;;;17.20;33.10;;;;;;5057052;28;20025;-37
2022/03/06 07:50:05;;;;;;;8.48;7.05;;;17.30;32.90;;;;;;5055816;28;20017;-38
2022/03/06 07:52:31;;;;;;;8.05;6.65;;;17.40;32.70;;;;;;5055511;28;20021;-36
2022/03/06 07:54:57;;;;;;;8.60;7.15;;;17.50;32.70;;;;;;5055551;28;20442;-36
2022/03/06 07:57:24;;;;;;;8.30;6.72;;;17.50;32.60;;;;;;5055762;28;20100;-38
2022/03/06 07:59:51;;;;;;;8.05;6.82;;;17.60;32.50;;;;;;5056056;28;20051;-38
2022/03/06 08:02:17;;;;;;;8.15;6.68;;;17.70;32.30;;;;;;5055433;28;20047;-38
2022/03/06 08:04:42;;;;;;;8.27;6.55;;;17.70;32.20;;;;;;5054327;28;20442;-37
2022/03/06 08:07:09;;;;;;;8.07;6.53;;;17.80;32.10;;;;;;5055862;28;20092;-38
2022/03/06 08:09:35;;;;;;;8.50;6.75;;;17.80;32.00;;;;;;5055423;28;20018;-37
2022/03/06 08:12:01;;;;;;;7.90;6.15;;;17.90;31.90;;;;;;5055059;28;20028;-37
2022/03/06 08:14:29;;;;;;;7.32;6.43;;;17.90;31.70;;;;;;5054815;28;20052;-36
2022/03/06 08:16:55;;;;;;;8.23;6.63;;;18.00;31.70;;;;;;5054520;28;20055;-38
2022/03/06 08:19:22;;;;;;;8.60;6.78;;;18.00;31.60;;;;;;5054845;28;20013;-37
2022/03/06 08:21:48;;;;;;;7.82;6.10;;;18.10;31.60;;;;;;5054637;28;20063;-36
2022/03/06 08:24:15;;;;;;;7.32;6.03;;;18.10;31.50;;;;;;5054883;28;20074;-37
2022/03/06 08:26:42;;;;;;;8.20;6.65;;;18.20;31.40;;;;;;5054526;28;20028;-36
2022/03/06 08:29:08;;;;;;;7.20;6.03;;;18.30;31.40;;;;;;5053739;28;20039;-37
2022/03/06 08:31:34;;;;;;;7.32;6.18;;;18.30;31.30;;;;;;5053296;28;20021;-37
2022/03/06 08:34:00;;;;;;;7.18;6.03;;;18.40;31.10;;;;;;5053365;28;20032;-37
2022/03/06 08:36:26;;;;;;;6.95;5.93;;;18.40;31.10;;;;;;5053432;28;20021;-37
2022/03/06 08:38:52;;;;;;;7.28;5.95;;;18.50;31.10;;;;;;5053515;28;20044;-37
2022/03/06 08:41:18;;;;;;;7.07;6.03;;;18.60;30.90;;;;;;5052050;28;20534;-40
2022/03/06 08:43:44;;;;;;;7.85;5.75;;;18.60;30.80;;;;;;5053151;28;20048;-37
2022/03/06 08:46:11;;;;;;;6.57;5.55;;;18.70;30.70;;;;;;5053326;28;20021;-37
2022/03/06 08:48:37;;;;;;;6.88;6.00;;;18.70;30.70;;;;;;5053485;28;20021;-37
2022/03/06 08:51:04;;;;;;;6.32;5.60;;;18.80;30.60;;;;;;5053686;28;20471;-37
2022/03/06 08:53:30;;;;;;;7.15;5.80;;;18.80;30.50;;;;;;5053243;28;20017;-37
2022/03/06 08:55:57;;;;;;;6.78;5.43;;;18.90;30.50;;;;;;5053435;28;20013;-37
2022/03/06 08:58:23;;;;;;;6.65;5.70;;;18.90;30.40;;;;;;5053392;28;20533;-37
2022/03/06 09:00:50;;;;;;;6.45;5.70;;;19.00;30.40;;;;;;5053414;28;20025;-37
2022/03/06 09:03:17;;;;;;;6.95;5.78;;;19.00;30.30;;;;;;5053702;28;20103;-37
2022/03/06 09:05:43;;;;;;;6.43;5.70;;;19.00;30.20;;;;;;5053764;28;20021;-37
2022/03/06 09:08:10;;;;;;;7.05;5.50;;;19.10;30.20;;;;;;5053659;28;20074;-37
2022/03/06 09:10:37;;;;;;;6.97;6.05;;;19.10;30.10;;;;;;5051686;28;20381;-37
2022/03/06 09:13:04;;;;;;;5.82;5.20;;;19.10;30.00;;;;;;5053228;28;20017;-41
2022/03/06 09:15:29;;;;;;;6.90;5.40;;;19.10;30.20;;;;;;5052533;28;20074;-40
2022/03/06 09:17:56;;;;;;;6.60;5.57;;;19.20;30.00;;;;;;5051773;28;20023;-38
2022/03/06 09:20:23;;;;;;;6.05;5.40;;;19.20;30.00;;;;;;5052255;28;20021;-40
2022/03/06 09:22:49;;;;;;;5.80;5.00;;;19.30;30.00;;;;;;5051793;28;20096;-37
2022/03/06 09:25:15;;;;;;;5.85;5.25;;;19.30;30.00;;;;;;5053126;28;20021;-41
2022/03/06 09:27:41;;;;;;;6.47;5.35;;;19.30;29.90;;;;;;5052647;28;20016;-42
2022/03/06 09:30:08;;;;;;;7.45;5.30;;;19.30;29.80;;;;;;5053882;28;20395;-38
2022/03/06 09:32:34;;;;;;;5.95;5.35;;;19.30;29.80;;;;;;5052798;28;20384;-38
2022/03/06 09:35:00;;;;;;;6.07;5.03;;;19.40;29.80;;;;;;5053221;28;20013;-37
2022/03/06 09:37:26;;;;;;;6.28;5.55;;;19.40;29.80;;;;;;5051825;28;20063;-38
2022/03/06 09:39:53;;;;;;;5.68;5.07;;;19.40;29.70;;;;;;5052100;28;20021;-38
2022/03/06 09:42:19;;;;;;;5.50;4.90;;;19.40;29.60;;;;;;5052338;28;20021;-37
2022/03/06 09:44:48;;;;;;;5.57;4.95;;;19.50;29.70;;;;;;5054125;28;20020;-37
2022/03/06 09:47:15;;;;;;;5.88;5.00;;;19.50;29.60;;;;;;5052901;28;20539;-38
2022/03/06 09:49:46;;;;;;;5.80;5.18;;;19.50;29.50;;;;;;5055799;28;20048;-42
2022/03/06 09:52:11;;;;;;;5.30;4.80;;;19.50;29.50;;;;;;5055982;28;20484;-38
2022/03/06 09:54:38;;;;;;;6.05;5.00;;;19.60;29.50;;;;;;5054146;28;20016;-38
2022/03/06 09:57:04;;;;;;;5.50;4.90;;;19.60;29.50;;;;;;5052908;28;20013;-38
2022/03/06 09:59:31;;;;;;;5.45;4.90;;;19.60;29.50;;;;;;5055365;28;20018;-40
2022/03/06 10:02:06;;;;;;;6.05;5.00;;;19.60;29.50;;;;;;5055079;28;20045;-37
2022/03/06 10:04:34;;;;;;;5.40;4.88;;;19.60;29.40;;;;;;5054819;28;20021;-38
2022/03/06 10:07:04;;;;;;;6.05;4.90;;;19.60;29.40;;;;;;5054893;28;20380;-38
2022/03/06 10:09:47;;;;;;;5.97;5.03;;;19.60;29.30;;;;;;5053918;28;20021;-37
2022/03/06 10:12:20;;;;;;;6.40;5.40;;;19.70;29.30;;;;;;5055183;28;20567;-41
2022/03/06 10:14:47;;;;;;;5.38;4.82;;;19.70;29.30;;;;;;5058392;28;20013;-40
2022/03/06 10:17:14;;;;;;;5.80;5.05;;;19.70;29.20;;;;;;5058526;28;20009;-41
2022/03/06 10:19:57;;;;;;;5.40;4.80;;;19.70;29.20;;;;;;5058227;28;20009;-38
2022/03/06 10:22:25;;;;;;;5.80;5.10;;;19.70;29.20;;;;;;5057687;28;20459;-38
2022/03/06 10:24:56;;;;;;;6.38;5.10;;;19.70;29.20;;;;;;5040113;28;20009;-40
2022/03/06 10:27:41;;;;;;;5.20;4.70;;;19.70;29.20;;;;;;5058796;28;20501;-39
2022/03/06 10:30:28;;;;;;;6.00;5.18;;;19.70;29.20;;;;;;5057308;28;20059;-37
2022/03/06 10:32:55;;;;;;;5.63;5.03;;;19.70;29.20;;;;;;5057468;28;20017;-39
2022/03/06 10:35:35;;;;;;;5.57;4.95;;;19.70;29.10;;;;;;5058061;28;20017;-38
2022/03/06 10:38:04;;;;;;;6.10;5.10;;;19.70;29.10;;;;;;5057937;28;20009;-40
2022/03/06 10:40:37;;;;;;;4.90;4.40;;;19.70;29.10;;;;;;5040408;28;20028;-37
2022/03/06 10:43:18;;;;;;;5.90;4.85;;;19.60;29.10;;;;;;5058298;28;20045;-36
2022/03/06 10:45:45;;;;;;;5.28;4.70;;;19.60;29.10;;;;;;5059316;28;20021;-36
2022/03/06 10:48:11;;;;;;;6.35;4.70;;;19.60;29.10;;;;;;5058981;28;20032;-37
2022/03/06 10:50:37;;;;;;;5.50;4.75;;;19.60;29.10;;;;;;5058186;28;20472;-37
2022/03/06 10:53:23;;;;;;;5.55;4.80;;;19.70;29.10;;;;;;5058231;28;20009;-36
2022/03/06 10:55:49;;;;;;;5.80;4.97;;;19.60;29.00;;;;;;5058371;28;20068;-38
2022/03/06 10:58:17;;;;;;;5.78;4.78;;;19.70;29.00;;;;;;5057347;28;20010;-38
2022/03/06 11:00:43;;;;;;;5.55;4.72;;;19.60;29.00;;;;;;5056337;28;20021;-38
2022/03/06 11:03:11;;;;;;;6.18;4.70;;;19.60;29.00;;;;;;5056253;28;20031;-36
2022/03/06 11:05:37;;;;;;;5.97;4.50;;;19.60;29.10;;;;;;5055901;28;20505;-36
2022/03/06 11:08:04;;;;;;;5.47;4.70;;;19.60;29.10;;;;;;5039027;28;20025;-37
2022/03/06 11:10:30;;;;;;;5.10;4.57;;;19.60;29.10;;;;;;5056435;28;20032;-36
2022/03/06 11:12:56;;;;;;;5.13;4.60;;;19.50;29.00;;;;;;5056039;28;20020;-36
2022/03/06 11:15:21;;;;;;;5.10;4.25;;;19.50;29.00;;;;;;5055036;28;20052;-37
2022/03/06 11:17:47;;;;;;;5.82;4.60;;;19.50;29.00;;;;;;5053727;28;20024;-36
2022/03/06 11:20:13;;;;;;;5.80;4.80;;;19.50;29.00;;;;;;5055341;28;20081;-36
2022/03/06 11:22:50;;;;;;;5.15;4.35;;;19.50;29.10;;;;;;5037524;28;20455;-36
2022/03/06 11:25:20;;;;;;;5.18;4.18;;;19.40;29.10;;;;;;5055161;28;20479;-36
2022/03/06 11:28:26;;;;;;;5.07;4.57;;;19.40;29.00;;;;;;5038350;28;20443;-44
2022/03/06 11:30:52;;;;;;;4.97;4.45;;;19.40;29.10;;;;;;5054950;28;20029;-38
2022/03/06 11:33:18;;;;;;;5.40;4.57;;;19.40;29.00;;;;;;5054198;28;20460;-40
2022/03/06 11:35:45;;;;;;;5.35;4.60;;;19.30;29.10;;;;;;5055328;28;20024;-41
2022/03/06 11:38:17;;;;;;;4.93;4.20;;;19.30;29.00;;;;;;5054740;28;20027;-39
2022/03/06 11:40:45;;;;;;;6.00;4.70;;;19.20;29.00;;;;;;5054627;28;20033;-37
2022/03/06 11:43:12;;;;;;;4.78;4.28;;;19.20;29.10;;;;;;5052955;28;20161;-37
2022/03/06 11:45:54;;;;;;;4.85;4.20;;;19.20;29.20;;;;;;5054504;28;20009;-36
2022/03/06 11:48:46;;;;;;;5.95;4.72;;;19.20;29.30;;;;;;5053186;28;20495;-37
2022/03/06 11:51:15;;;;;;;5.60;4.38;;;19.10;29.20;;;;;;5054014;28;20043;-38
2022/03/06 11:53:51;;;;;;;5.03;4.50;;;19.10;29.30;;;;;;5054402;28;20025;-39
2022/03/06 11:56:39;;;;;;;5.32;4.70;;;19.00;29.30;;;;;;5053126;28;20049;-38
2022/03/06 11:59:29;;;;;;;5.82;4.80;;;19.00;29.40;;;;;;5054240;28;20009;-38
2022/03/06 12:01:59;;;;;;;4.53;3.60;;;19.00;29.30;;;;;;5053880;28;20040;-40
2022/03/06 12:04:27;;;;;;;5.65;4.38;;;19.00;29.40;;;;;;5054271;28;20555;-39
2022/03/06 12:06:57;;;;;;;4.75;4.10;;;18.90;29.40;;;;;;5054363;28;20396;-38
2022/03/06 12:09:37;;;;;;;4.82;4.03;;;18.90;29.40;;;;;;5054591;28;20498;-39
2022/03/06 12:12:08;;;;;;;5.15;4.20;;;18.80;29.40;;;;;;5054188;28;20483;-37
2022/03/06 12:14:46;;;;;;;4.38;3.95;;;18.80;29.50;;;;;;5052633;28;20024;-40
2022/03/06 12:17:12;;;;;;;4.43;3.92;;;18.80;29.50;;;;;;5054143;28;20471;-38
2022/03/06 12:19:45;;;;;;;5.88;4.40;;;18.70;29.50;;;;;;5053801;28;20053;-40
2022/03/06 12:22:11;;;;;;;4.13;3.70;;;18.70;29.60;;;;;;5054026;28;20032;-37
2022/03/06 12:24:38;;;;;;;5.15;4.30;;;18.70;29.60;;;;;;5054009;28;20021;-37
2022/03/06 12:27:14;;;;;;;4.40;3.97;;;18.60;29.60;;;;;;5053151;28;20013;-43
2022/03/06 12:29:47;;;;;;;4.65;4.15;;;18.60;29.60;;;;;;5053986;28;20052;-37
2022/03/06 12:32:24;;;;;;;4.72;3.90;;;18.60;29.60;;;;;;5053616;28;20028;-38
2022/03/06 12:34:57;;;;;;;4.65;3.80;;;18.60;29.60;;;;;;5053528;28;20025;-40
2022/03/06 12:37:26;;;;;;;4.40;4.00;;;18.50;29.60;;;;;;5053572;28;20021;-38
2022/03/06 12:39:52;;;;;;;4.40;3.65;;;18.50;29.70;;;;;;5053808;28;20092;-38
2022/03/06 12:42:29;;;;;;;4.65;3.78;;;18.50;29.80;;;;;;5037535;28;20420;-37
2022/03/06 12:45:06;;;;;;;4.35;3.75;;;18.40;29.80;;;;;;5056782;28;20523;-38